createdAt,value
2024-02-29T00:00:10.937Z,39.97
2024-02-29T00:02:38.224Z,38.10
2024-02-29T00:05:07.192Z,37.70
2024-02-29T00:07:34.115Z,38.78
2024-02-29T00:10:01.165Z,39.30
2024-02-29T00:12:28.061Z,39.50
2024-02-29T00:14:54.914Z,40.40
2024-02-29T00:17:22.635Z,39.55
2024-02-29T00:19:49.507Z,38.22
2024-02-29T00:22:16.371Z,37.97
2024-02-29T00:24:43.108Z,38.72
2024-02-29T00:27:09.896Z,36.20
2024-02-29T00:29:36.769Z,36.70
2024-02-29T00:32:03.624Z,38.67
2024-02-29T00:34:30.518Z,38.50
2024-02-29T00:36:58.494Z,39.55
2024-02-29T00:39:25.280Z,36.95
2024-02-29T00:41:52.039Z,36.90
2024-02-29T00:44:20.420Z,37.45
2024-02-29T00:46:47.352Z,37.30
2024-02-29T00:49:17.577Z,37.30
2024-02-29T00:51:44.580Z,37.50
2024-02-29T00:54:11.612Z,38.47
2024-02-29T00:56:38.523Z,37.97
2024-02-29T00:59:05.464Z,37.15
2024-02-29T01:01:32.295Z,36.35
2024-02-29T01:03:59.294Z,40.65
2024-02-29T01:06:26.212Z,37.22
2024-02-29T01:08:53.050Z,36.67
2024-02-29T01:11:20.007Z,37.75
2024-02-29T01:13:47.020Z,38.22
2024-02-29T01:16:13.905Z,38.78
2024-02-29T01:18:41.658Z,38.05
2024-02-29T01:21:08.663Z,35.17
2024-02-29T01:23:35.534Z,35.60
2024-02-29T01:26:02.462Z,36.45
2024-02-29T01:28:29.194Z,38.45
2024-02-29T01:30:56.188Z,38.50
2024-02-29T01:33:23.005Z,38.40
2024-02-29T01:35:49.838Z,34.67
2024-02-29T01:38:16.682Z,36.95
2024-02-29T01:40:46.838Z,35.33
2024-02-29T01:43:14.446Z,34.25
2024-02-29T01:45:41.326Z,35.72
2024-02-29T01:48:09.161Z,38.05
2024-02-29T01:50:37.160Z,34.92
2024-02-29T01:53:04.009Z,34.38
2024-02-29T01:55:31.479Z,35.03
2024-02-29T01:57:58.361Z,34.75
2024-02-29T02:04:56.922Z,36.33
2024-02-29T02:07:24.047Z,36.50
2024-02-29T02:09:51.141Z,33.72
2024-02-29T02:12:17.990Z,35.80
2024-02-29T02:14:45.072Z,36.40
2024-02-29T02:17:11.829Z,35.47
2024-02-29T02:19:40.128Z,34.67
2024-02-29T02:22:07.136Z,36.38
2024-02-29T02:24:35.622Z,35.63
2024-02-29T02:27:02.851Z,35.78
2024-02-29T02:29:30.400Z,40.55
2024-02-29T02:31:57.268Z,41.17
2024-02-29T02:34:24.837Z,38.42
2024-02-29T02:36:51.765Z,37.55
2024-02-29T02:39:18.658Z,38.20
2024-02-29T02:41:49.227Z,39.50
2024-02-29T02:44:16.033Z,43.00
2024-02-29T02:46:42.888Z,38.25
2024-02-29T02:49:10.304Z,40.05
2024-02-29T02:51:37.195Z,38.53
2024-02-29T02:54:04.320Z,38.85
2024-02-29T02:56:31.037Z,40.70
2024-02-29T02:58:57.752Z,42.00
2024-02-29T03:01:24.478Z,39.78
2024-02-29T03:03:53.502Z,38.42
2024-02-29T03:06:20.444Z,38.90
2024-02-29T03:08:47.209Z,40.40
2024-02-29T03:11:14.061Z,38.72
2024-02-29T03:13:40.957Z,42.42
2024-02-29T03:16:07.749Z,40.58
2024-02-29T03:18:34.514Z,41.38
2024-02-29T03:21:03.367Z,39.30
2024-02-29T03:23:30.295Z,42.20
2024-02-29T03:25:57.065Z,38.60
2024-02-29T03:28:23.802Z,41.22
2024-02-29T03:30:50.715Z,40.05
2024-02-29T03:33:17.437Z,40.17
2024-02-29T03:35:44.119Z,37.83
2024-02-29T03:38:12.516Z,40.47
2024-02-29T03:40:39.318Z,42.03
2024-02-29T03:43:06.406Z,41.83
2024-02-29T03:45:33.170Z,40.78
2024-02-29T03:47:59.995Z,41.00
2024-02-29T03:50:28.209Z,40.92
2024-02-29T03:52:55.132Z,42.53
2024-02-29T03:55:23.981Z,41.75
2024-02-29T03:57:50.811Z,38.20
2024-02-29T04:00:17.651Z,40.83
2024-02-29T04:02:44.409Z,37.92
2024-02-29T04:05:11.216Z,41.15
2024-02-29T04:07:39.117Z,39.45
2024-02-29T04:10:06.524Z,41.25
2024-02-29T04:12:33.721Z,42.28
2024-02-29T04:15:02.669Z,40.80
2024-02-29T04:17:31.263Z,37.05
2024-02-29T04:19:58.115Z,41.08
2024-02-29T04:22:25.133Z,39.58
2024-02-29T04:24:52.404Z,39.05
2024-02-29T04:27:19.564Z,38.25
2024-02-29T04:29:49.509Z,38.40
2024-02-29T04:32:16.454Z,39.33
2024-02-29T04:34:44.489Z,40.67
2024-02-29T04:37:11.680Z,40.15
2024-02-29T04:39:38.598Z,39.00
2024-02-29T04:42:05.671Z,39.83
2024-02-29T04:44:32.479Z,37.17
2024-02-29T04:46:59.248Z,39.13
2024-02-29T04:49:26.131Z,38.67
2024-02-29T04:51:54.001Z,40.67
2024-02-29T04:54:20.905Z,39.72
2024-02-29T04:56:47.758Z,40.35
2024-02-29T04:59:14.575Z,41.70
2024-02-29T05:01:41.373Z,44.47
2024-02-29T05:04:08.264Z,39.95
2024-02-29T05:06:35.116Z,42.30
2024-02-29T05:09:02.207Z,42.65
2024-02-29T05:11:29.230Z,43.22
2024-02-29T05:13:56.244Z,39.63
2024-02-29T05:16:23.210Z,44.55
2024-02-29T05:18:50.406Z,45.15
2024-02-29T05:21:17.437Z,43.67
2024-02-29T05:23:44.320Z,39.97
2024-02-29T05:26:11.841Z,42.38
2024-02-29T05:28:38.739Z,39.00
2024-02-29T05:31:05.761Z,38.95
2024-02-29T05:33:32.583Z,37.85
2024-02-29T05:35:59.535Z,41.20
2024-02-29T05:38:27.102Z,37.78
2024-02-29T05:40:53.939Z,39.17
2024-02-29T05:43:20.830Z,40.30
2024-02-29T05:45:47.744Z,38.08
2024-02-29T05:48:14.605Z,36.25
2024-02-29T05:50:41.834Z,39.05
2024-02-29T05:53:08.580Z,38.60
2024-02-29T05:55:35.479Z,42.55
2024-02-29T05:58:02.772Z,39.90
2024-02-29T06:00:30.243Z,39.72
2024-02-29T06:02:58.214Z,40.58
2024-02-29T06:05:25.135Z,40.13
2024-02-29T06:07:52.030Z,39.88
2024-02-29T06:10:20.561Z,37.78
2024-02-29T06:12:47.505Z,41.90
2024-02-29T06:15:14.271Z,39.67
2024-02-29T06:17:41.203Z,40.15
2024-02-29T06:20:11.657Z,38.90
2024-02-29T06:22:41.237Z,41.80
2024-02-29T06:25:11.793Z,41.97
2024-02-29T06:27:40.091Z,42.70
2024-02-29T06:30:09.291Z,41.28
2024-02-29T06:32:36.508Z,42.35
2024-02-29T06:35:04.198Z,40.33
2024-02-29T06:37:30.974Z,39.70
2024-02-29T06:39:59.568Z,39.90
2024-02-29T06:42:26.821Z,40.45
2024-02-29T06:44:53.863Z,36.63
2024-02-29T06:47:20.732Z,39.67
2024-02-29T06:49:47.523Z,39.00
2024-02-29T06:52:14.367Z,39.30
2024-02-29T06:54:43.792Z,38.70
2024-02-29T06:57:10.680Z,39.30
2024-02-29T06:59:37.503Z,40.25
2024-02-29T07:02:04.750Z,38.03
2024-02-29T07:04:31.536Z,38.30
2024-02-29T07:06:58.472Z,37.20
2024-02-29T07:09:25.329Z,40.25
2024-02-29T07:11:52.134Z,39.08
2024-02-29T07:14:18.933Z,37.80
2024-02-29T07:16:47.642Z,40.83
2024-02-29T07:19:15.657Z,38.38
2024-02-29T07:21:42.692Z,37.30
2024-02-29T07:24:09.876Z,39.50
2024-02-29T07:26:42.943Z,39.70
2024-02-29T07:29:10.336Z,37.53
2024-02-29T07:31:42.245Z,41.03
2024-02-29T07:34:11.872Z,37.38
2024-02-29T07:36:38.796Z,41.70
2024-02-29T07:39:07.547Z,39.80
2024-02-29T07:41:34.481Z,38.40
2024-02-29T07:44:01.291Z,39.40
2024-02-29T07:46:28.118Z,42.22
2024-02-29T07:48:55.158Z,42.00
2024-02-29T07:51:21.990Z,38.70
2024-02-29T07:53:48.819Z,37.92
2024-02-29T07:56:15.727Z,38.38
2024-02-29T07:58:42.586Z,38.55
2024-02-29T08:01:10.981Z,40.83
2024-02-29T08:03:38.380Z,41.88
2024-02-29T08:06:05.754Z,41.55
2024-02-29T08:08:32.660Z,37.17
2024-02-29T08:11:00.614Z,39.95
2024-02-29T08:13:27.357Z,40.25
2024-02-29T08:15:54.244Z,40.90
2024-02-29T08:18:21.086Z,40.08
2024-02-29T08:20:47.961Z,38.90
2024-02-29T08:23:16.678Z,37.53
2024-02-29T08:25:43.520Z,39.42
2024-02-29T08:28:10.282Z,38.42
2024-02-29T08:30:37.083Z,38.40
2024-02-29T08:33:04.028Z,41.03
2024-02-29T08:35:30.882Z,38.50
2024-02-29T08:37:58.191Z,38.50
2024-02-29T08:40:25.308Z,37.00
2024-02-29T08:42:52.949Z,39.38
2024-02-29T08:45:21.998Z,40.03
2024-02-29T08:47:51.209Z,38.47
2024-02-29T08:50:18.070Z,39.80
2024-02-29T08:52:44.996Z,39.92
2024-02-29T08:55:11.829Z,38.40
2024-02-29T08:57:38.748Z,40.67
2024-02-29T09:00:06.551Z,36.65
2024-02-29T09:02:33.400Z,39.50
2024-02-29T09:05:00.206Z,38.70
2024-02-29T09:07:27.443Z,39.28
2024-02-29T09:09:54.361Z,37.38
2024-02-29T09:12:21.340Z,41.65
2024-02-29T09:14:48.305Z,39.65
2024-02-29T09:17:15.940Z,40.55
2024-02-29T09:19:42.767Z,38.60
2024-02-29T09:22:09.856Z,40.95
2024-02-29T09:24:36.751Z,38.75
2024-02-29T09:27:04.598Z,40.45
2024-02-29T09:29:34.460Z,40.00
2024-02-29T09:32:03.746Z,40.50
2024-02-29T09:34:35.395Z,37.58
2024-02-29T09:37:05.877Z,39.53
2024-02-29T09:39:33.438Z,42.55
2024-02-29T09:42:12.362Z,41.50
2024-02-29T09:44:41.454Z,38.55
2024-02-29T09:47:08.866Z,37.35
2024-02-29T09:49:35.634Z,37.28
2024-02-29T09:52:02.433Z,40.92
2024-02-29T09:54:31.603Z,37.28
2024-02-29T09:56:58.419Z,36.92
2024-02-29T09:59:25.498Z,37.30
2024-02-29T10:01:56.961Z,39.30
2024-02-29T10:04:23.866Z,38.60
2024-02-29T10:06:50.689Z,37.53
2024-02-29T10:09:17.508Z,40.65
2024-02-29T10:11:44.745Z,39.90
2024-02-29T10:14:30.764Z,37.38
2024-02-29T10:17:00.703Z,36.55
2024-02-29T10:19:27.729Z,40.50
2024-02-29T10:21:54.595Z,37.03
2024-02-29T10:24:27.000Z,38.88
2024-02-29T10:27:03.677Z,39.03
2024-02-29T10:29:30.800Z,39.70
2024-02-29T10:31:59.555Z,40.45
2024-02-29T10:34:26.549Z,38.45
2024-02-29T10:36:53.485Z,36.38
2024-02-29T10:39:20.337Z,37.30
2024-02-29T10:41:51.397Z,38.15
2024-02-29T10:44:22.830Z,37.75
2024-02-29T10:46:52.788Z,36.65
2024-02-29T10:49:36.310Z,40.65
2024-02-29T10:52:14.126Z,41.03
2024-02-29T10:54:53.061Z,37.33
2024-02-29T10:57:26.347Z,39.10
2024-02-29T11:00:00.734Z,37.50
2024-02-29T11:02:28.250Z,38.42
2024-02-29T11:04:55.726Z,36.92
2024-02-29T11:07:23.033Z,36.47
2024-02-29T11:09:49.954Z,39.10
2024-02-29T11:12:18.836Z,37.97
2024-02-29T11:14:49.314Z,36.80
2024-02-29T11:17:16.593Z,38.80
2024-02-29T11:19:51.634Z,36.85
2024-02-29T11:22:35.872Z,38.83
2024-02-29T11:25:13.178Z,40.78
2024-02-29T11:27:48.088Z,39.95
2024-02-29T11:30:19.576Z,38.83
2024-02-29T11:32:46.400Z,37.47
2024-02-29T11:35:15.855Z,38.33
2024-02-29T11:37:44.643Z,40.03
2024-02-29T11:40:21.151Z,38.22
2024-02-29T11:42:48.247Z,37.92
2024-02-29T11:45:24.551Z,37.30
2024-02-29T11:47:51.480Z,37.53
2024-02-29T11:50:18.493Z,40.80
2024-02-29T11:52:45.502Z,37.25
2024-02-29T11:55:12.852Z,37.55
2024-02-29T11:57:39.740Z,35.78
2024-02-29T12:00:09.902Z,33.88
2024-02-29T12:02:38.203Z,39.38
2024-02-29T12:05:05.610Z,37.33
2024-02-29T12:07:33.538Z,36.20
2024-02-29T12:10:02.489Z,37.25
2024-02-29T12:12:30.224Z,39.55
2024-02-29T12:14:57.720Z,36.88
2024-02-29T12:17:27.894Z,34.13
2024-02-29T12:19:56.288Z,35.20
2024-02-29T12:22:23.116Z,38.78
2024-02-29T12:24:50.276Z,37.65
2024-02-29T12:27:17.191Z,40.05
2024-02-29T12:29:44.459Z,39.47
2024-02-29T12:32:11.321Z,38.75
2024-02-29T12:34:39.047Z,36.45
2024-02-29T12:37:06.011Z,37.85
2024-02-29T12:39:32.792Z,36.72
2024-02-29T12:41:59.536Z,36.60
2024-02-29T12:44:26.579Z,34.58
2024-02-29T12:46:57.206Z,35.85
2024-02-29T12:49:24.268Z,36.55
2024-02-29T12:51:52.702Z,36.45
2024-02-29T12:54:20.752Z,37.35
2024-02-29T12:56:47.544Z,36.90
2024-02-29T12:59:14.454Z,33.40
2024-02-29T13:01:42.223Z,37.53
2024-02-29T13:04:09.346Z,39.67
2024-02-29T13:06:36.264Z,36.80
2024-02-29T13:09:03.834Z,38.28
2024-02-29T13:11:30.787Z,37.42
2024-02-29T13:13:57.614Z,37.67
2024-02-29T13:16:24.543Z,35.08
2024-02-29T13:18:51.380Z,36.85
2024-02-29T13:21:18.310Z,36.13
2024-02-29T13:23:45.102Z,35.97
2024-02-29T13:26:11.901Z,36.30
2024-02-29T13:28:39.627Z,38.00
2024-02-29T13:31:06.468Z,35.83
2024-02-29T13:33:33.361Z,38.38
2024-02-29T13:36:00.142Z,39.20
2024-02-29T13:38:26.982Z,37.53
2024-02-29T13:40:53.791Z,33.92
2024-02-29T13:43:20.606Z,34.47
2024-02-29T13:45:47.588Z,33.70
2024-02-29T13:48:14.643Z,35.70
2024-02-29T13:50:43.421Z,37.40
2024-02-29T13:53:10.676Z,34.53
2024-02-29T13:55:37.802Z,33.60
2024-02-29T13:58:04.868Z,34.70
2024-02-29T14:00:33.821Z,34.42
2024-02-29T14:03:00.923Z,35.83
2024-02-29T14:05:27.851Z,38.95
2024-02-29T14:07:54.872Z,35.58
2024-02-29T14:10:21.791Z,35.08
2024-02-29T14:12:48.920Z,35.33
2024-02-29T14:15:18.756Z,39.28
2024-02-29T14:17:46.017Z,34.40
2024-02-29T14:20:12.933Z,37.00
2024-02-29T14:22:40.018Z,37.97
2024-02-29T14:25:07.719Z,39.33
2024-02-29T14:27:35.374Z,36.30
2024-02-29T14:30:03.155Z,37.33
2024-02-29T14:32:30.538Z,38.33
2024-02-29T14:34:57.451Z,36.25
2024-02-29T14:37:24.329Z,36.33
2024-02-29T14:39:51.166Z,35.92
2024-02-29T14:42:18.314Z,36.38
2024-02-29T14:44:45.059Z,36.55
2024-02-29T14:47:11.928Z,36.05
2024-02-29T14:49:38.956Z,37.08
2024-02-29T14:52:07.046Z,35.00
2024-02-29T14:54:34.935Z,35.67
2024-02-29T14:57:02.064Z,36.03
2024-02-29T14:59:29.858Z,32.85
2024-02-29T15:01:57.002Z,36.30
2024-02-29T15:04:23.993Z,37.38
2024-02-29T15:06:50.966Z,35.72
2024-02-29T15:09:18.279Z,34.03
2024-02-29T15:11:45.137Z,35.08
2024-02-29T15:14:11.942Z,37.22
2024-02-29T15:16:38.779Z,36.97
2024-02-29T15:19:05.765Z,35.75
2024-02-29T15:21:33.444Z,36.40
2024-02-29T15:24:05.303Z,38.03
2024-02-29T15:26:35.720Z,36.22
2024-02-29T15:29:02.822Z,35.42
2024-02-29T15:31:29.859Z,36.28
2024-02-29T15:33:56.800Z,34.47
2024-02-29T15:36:23.814Z,35.22
2024-02-29T15:38:51.724Z,33.08
2024-02-29T15:41:18.620Z,35.30
2024-02-29T15:43:49.477Z,31.63
2024-02-29T15:46:17.097Z,35.30
2024-02-29T15:48:44.167Z,35.78
2024-02-29T15:51:10.926Z,34.63
2024-02-29T15:53:37.881Z,37.22
2024-02-29T15:56:05.402Z,37.70
2024-02-29T15:58:32.433Z,34.00
2024-02-29T16:00:59.772Z,33.97
2024-02-29T16:03:26.530Z,35.45
2024-02-29T16:05:53.268Z,34.25
2024-02-29T16:08:20.051Z,37.85
2024-02-29T16:10:46.858Z,34.95
2024-02-29T16:13:13.906Z,33.30
2024-02-29T16:15:41.060Z,34.17
2024-02-29T16:18:10.642Z,38.05
2024-02-29T16:20:37.472Z,38.45
2024-02-29T16:23:04.381Z,37.28
2024-02-29T16:25:32.129Z,36.22
2024-02-29T16:27:58.963Z,35.58
2024-02-29T16:30:25.862Z,35.13
2024-02-29T16:32:52.704Z,34.38
2024-02-29T16:35:19.501Z,38.17
2024-02-29T16:37:46.419Z,34.85
2024-02-29T16:40:13.375Z,35.15
2024-02-29T16:42:40.197Z,38.10
2024-02-29T16:45:07.489Z,35.60
2024-02-29T16:47:34.585Z,35.05
2024-02-29T16:50:01.636Z,35.55
2024-02-29T16:52:28.973Z,37.53
2024-02-29T16:54:55.977Z,35.95
2024-02-29T16:57:22.846Z,37.28
2024-02-29T16:59:49.565Z,35.17
2024-02-29T17:02:18.207Z,38.10
2024-02-29T17:04:47.854Z,35.03
2024-02-29T17:07:15.081Z,36.10
2024-02-29T17:09:42.240Z,36.88
2024-02-29T17:12:14.088Z,34.92
2024-02-29T17:14:40.977Z,33.97
2024-02-29T17:17:09.514Z,37.97
2024-02-29T17:19:36.420Z,36.05
2024-02-29T17:22:04.253Z,35.10
2024-02-29T17:24:31.184Z,34.92
2024-02-29T17:26:58.095Z,36.60
2024-02-29T17:29:24.876Z,34.85
2024-02-29T17:31:51.697Z,34.88
2024-02-29T17:34:18.501Z,32.88
2024-02-29T17:36:45.338Z,35.60
2024-02-29T17:39:12.226Z,33.13
2024-02-29T17:41:39.025Z,35.33
2024-02-29T17:44:06.184Z,35.95
2024-02-29T17:46:32.979Z,37.45
2024-02-29T17:48:59.850Z,35.53
2024-02-29T17:51:27.523Z,35.63
2024-02-29T17:53:54.409Z,35.17
2024-02-29T17:56:21.175Z,38.35
2024-02-29T17:58:50.363Z,34.65
2024-02-29T18:01:17.841Z,36.55
2024-02-29T18:03:48.089Z,35.10
2024-02-29T18:06:15.493Z,34.33
2024-02-29T18:08:42.579Z,34.65
2024-02-29T18:11:09.548Z,33.97
2024-02-29T18:13:37.788Z,35.33
2024-02-29T18:16:05.785Z,37.88
2024-02-29T18:18:32.913Z,35.30
2024-02-29T18:20:59.656Z,35.10
2024-02-29T18:23:26.344Z,35.05
2024-02-29T18:25:56.458Z,32.50
2024-02-29T18:28:23.455Z,35.55
2024-02-29T18:30:50.420Z,34.42
2024-02-29T18:33:17.366Z,35.00
2024-02-29T18:35:44.152Z,34.33
2024-02-29T18:38:10.896Z,34.20
2024-02-29T18:40:37.611Z,35.50
2024-02-29T18:43:05.372Z,34.95
2024-02-29T18:45:32.326Z,35.97
2024-02-29T18:47:59.245Z,34.40
2024-02-29T18:50:26.104Z,35.00
2024-02-29T18:52:52.823Z,35.28
2024-02-29T18:55:24.008Z,35.90
2024-02-29T18:57:51.034Z,34.05
2024-02-29T19:00:18.422Z,35.75
2024-02-29T19:02:45.269Z,32.63
2024-02-29T19:05:12.121Z,36.90
2024-02-29T19:07:39.022Z,36.40
2024-02-29T19:10:08.479Z,35.13
2024-02-29T19:12:37.363Z,37.65
2024-02-29T19:15:05.449Z,35.28
2024-02-29T19:17:32.382Z,35.95
2024-02-29T19:19:59.654Z,33.72
2024-02-29T19:22:28.613Z,35.40
2024-02-29T19:24:55.625Z,34.60
2024-02-29T19:27:23.291Z,38.35
2024-02-29T19:29:53.046Z,32.45
2024-02-29T19:32:20.678Z,33.85
2024-02-29T19:34:48.125Z,31.23
2024-02-29T19:37:15.493Z,35.65
2024-02-29T19:39:47.780Z,35.97
2024-02-29T19:42:14.748Z,36.35
2024-02-29T19:44:41.486Z,35.08
2024-02-29T19:47:08.289Z,35.92
2024-02-29T19:49:38.782Z,36.53
2024-02-29T19:52:06.993Z,35.67
2024-02-29T19:54:35.009Z,35.75
2024-02-29T19:57:01.831Z,37.22
2024-02-29T19:59:28.633Z,36.92
2024-02-29T20:01:55.491Z,33.92
2024-02-29T20:04:25.357Z,36.30
2024-02-29T20:06:55.329Z,34.42
2024-02-29T20:09:22.230Z,34.50
2024-02-29T20:11:48.975Z,35.35
2024-02-29T20:14:15.823Z,35.53
2024-02-29T20:16:42.580Z,37.00
2024-02-29T20:19:09.931Z,36.35
2024-02-29T20:21:36.769Z,37.58
2024-02-29T20:24:03.737Z,35.63
2024-02-29T20:26:30.619Z,36.03
2024-02-29T20:28:57.500Z,34.65
2024-02-29T20:31:24.374Z,34.35
2024-02-29T20:33:52.613Z,32.35
2024-02-29T20:36:19.575Z,33.03
2024-02-29T20:38:46.743Z,32.65
2024-02-29T20:41:14.625Z,33.63
2024-02-29T20:43:43.349Z,33.67
2024-02-29T20:46:17.839Z,35.08
2024-02-29T20:48:45.879Z,35.03
2024-02-29T20:51:12.925Z,35.03
2024-02-29T20:53:39.685Z,35.08
2024-02-29T20:56:06.924Z,35.40
2024-02-29T20:58:33.706Z,36.00
2024-02-29T21:01:00.658Z,33.47
2024-02-29T21:03:27.532Z,35.33
2024-02-29T21:05:54.710Z,34.92
2024-02-29T21:08:21.447Z,34.67
2024-02-29T21:10:48.724Z,34.40
2024-02-29T21:13:15.891Z,34.92
2024-02-29T21:15:43.262Z,37.58
2024-02-29T21:18:10.112Z,36.50
2024-02-29T21:20:36.950Z,36.30
2024-02-29T21:23:04.048Z,34.75
2024-02-29T21:25:31.138Z,38.20
2024-02-29T21:27:58.099Z,37.95
2024-02-29T21:30:24.941Z,36.90
2024-02-29T21:32:51.785Z,34.58
2024-02-29T21:35:20.287Z,35.50
2024-02-29T21:37:47.314Z,35.83
2024-02-29T21:40:14.502Z,36.67
2024-02-29T21:42:41.380Z,36.33
2024-02-29T21:45:08.917Z,37.47
2024-02-29T21:47:35.835Z,37.47
2024-02-29T21:50:04.116Z,39.67
2024-02-29T21:52:32.086Z,39.63
2024-02-29T21:54:58.995Z,39.80
2024-02-29T21:57:25.765Z,39.63
2024-02-29T21:59:52.590Z,39.00
2024-02-29T22:02:19.378Z,38.05
2024-02-29T22:04:46.330Z,38.08
2024-02-29T22:07:13.550Z,39.17
2024-02-29T22:09:40.381Z,40.17
2024-02-29T22:12:07.852Z,40.90
2024-02-29T22:14:34.692Z,42.10
2024-02-29T22:17:01.591Z,40.97
2024-02-29T22:19:28.373Z,38.65
2024-02-29T22:21:55.240Z,38.67
2024-02-29T22:24:22.113Z,41.00
2024-02-29T22:26:49.106Z,40.78
2024-02-29T22:29:15.796Z,42.20
2024-02-29T22:31:42.697Z,43.38
2024-02-29T22:34:10.698Z,38.25
2024-02-29T22:36:37.910Z,41.28
2024-02-29T22:39:05.023Z,38.50
2024-02-29T22:41:35.693Z,41.55
2024-02-29T22:44:04.551Z,39.33
2024-02-29T22:46:31.403Z,39.10
2024-02-29T22:48:58.405Z,40.85
2024-02-29T22:51:25.175Z,40.72
2024-02-29T22:53:52.025Z,39.92
2024-02-29T22:56:20.498Z,39.63
2024-02-29T22:58:47.343Z,37.88
2024-02-29T23:01:14.211Z,40.88
2024-02-29T23:03:41.038Z,41.38
2024-02-29T23:06:07.818Z,42.15
2024-02-29T23:08:34.625Z,41.67
2024-02-29T23:11:01.548Z,41.00
2024-02-29T23:13:28.415Z,41.15
2024-02-29T23:15:55.199Z,40.58
2024-02-29T23:18:21.969Z,38.75
2024-02-29T23:20:48.942Z,42.03
2024-02-29T23:23:15.653Z,39.85
2024-02-29T23:25:42.572Z,41.15
2024-02-29T23:28:10.024Z,40.72
2024-02-29T23:30:36.943Z,42.50
2024-02-29T23:33:04.608Z,41.63
2024-02-29T23:35:31.503Z,38.97
2024-02-29T23:37:58.285Z,40.35
2024-02-29T23:40:27.210Z,43.13
2024-02-29T23:42:53.998Z,40.80
2024-02-29T23:45:20.872Z,39.78
2024-02-29T23:47:47.706Z,39.80
2024-02-29T23:50:14.495Z,38.53
2024-02-29T23:52:41.230Z,39.55
2024-02-29T23:55:08.521Z,41.72
2024-02-29T23:57:35.428Z,38.63
